Pt. Reyes RCA field Weather observations

Data are for 10 minute period ending at time listed.
 Day   Time   Solar   Ave.   Ave.  Ave.  Vector    Max.   Stn.   Total 
  of    of     Rad.   Air    Rel.  Wind   Wind     Wind   Baro. Precip.
Year   Day            Temp.  Hum.  Speed  Dir.     Gust   Pres.        
2017   (PST)   W/m2    F      %     mph   deg.      mph    mb.    in.  
-----------------------------------------------------------------------
 321   16:30   55.0    55   76.0    10    329.0    13.5   1018.3  0.00  
 321   16:40   34.0    54   76.2    12    328.5    15.4   1018.3  0.00  
 321   16:50   16.0    54   78.1    10    330.2    13.6   1018.3  0.00  
 321   17:00    6.0    53   79.5    11    332.3    14.3   1018.3  0.00  
 321   17:10    2.0    53   81.3    11    332.6    15.3   1018.3  0.00  
 321   17:20    0.0    53   82.3    11    335.5    13.6   1018.3  0.00  
 321   17:30    0.0    53   83.3    12    339.2    14.8   1018.3  0.00  
 321   17:40    0.0    53   83.5    12    341.4    15.1   1018.3  0.00  
 321   17:50    0.0    52   83.4    11    340.1    15.0   1018.3  0.00  
 321   18:00    0.0    52   83.8    11    339.7    14.8   1018.3  0.00  
 321   18:10    0.0    52   85.0    10    341.5    13.3   1018.3  0.00  
 321   18:20    0.0    52   85.3    10    338.2    14.2   1018.3  0.00  
 321   18:30    0.0    52   86.4     7    349.2    10.1   1018.3  0.00  
 321   18:40    0.0    50   86.9     7      0.4    13.4   1018.3  0.00  
 321   18:50    0.0    50   86.2     7    344.5    11.1   1018.3  0.00  
 321   19:00    0.0    51   89.9     8    343.7    11.0   1018.3  0.00  
 321   19:10    0.0    50   88.4     5      1.4     9.0   1018.3  0.00  
 321   19:20    0.0    50   89.0     6      4.3     7.7   1018.3  0.00  
 321   19:30    0.0    49   90.1     5    358.7     6.6   1018.3  0.00  
 321   19:40    0.0    50   89.3     5     18.2     6.8   1018.3  0.00  
 321   19:50    0.0    50   85.7     8     17.6     9.8   1018.3  0.00  
 321   20:00    0.0    49   85.4     9     18.6    11.0   1018.6  0.00  
 321   20:10    0.0    50   85.7     6     34.2     7.6   1018.6  0.00  
 321   20:20    0.0    50   82.3     2     40.3     5.0   1018.6  0.00  
 321   20:30    0.0    46   85.1     2    188.6     3.2   1019.0  0.00  
 321   20:40    0.0    46   88.3     3    161.1     3.4   1019.0  0.00  
 321   20:50    0.0    46   87.2     2    137.5     2.7   1019.0  0.00  
 321   21:00    0.0    47   87.1     2    140.5     2.7   1019.0  0.00  
 321   21:10    0.0    45   87.8     3    116.7     3.8   1019.0  0.00  
 321   21:20    0.0    44   91.5     2    102.1     4.0   1019.0  0.00  
 321   21:30    0.0    44   92.2     2     56.6     3.6   1019.0  0.00  
 321   21:40    0.0    44   92.9     3     60.8     3.6   1019.0  0.00  
 321   21:50    0.0    44   92.9     4     71.4     4.7   1019.0  0.00  
 321   22:00    0.0    42   92.5     4     79.8     5.2   1019.0  0.00  
 321   22:10    0.0    42   94.4     4     75.6     5.7   1019.0  0.00  
 321   22:20    0.0    42   94.7     3     63.4     3.8   1019.0  0.00  
 321   22:30    0.0    43   94.8     3     57.2     3.1   1019.0  0.00  
 321   22:40    0.0    43   94.2     3     41.0     4.0   1019.0  0.00  
 321   22:50    0.0    43   94.9     3     40.2     4.0   1019.0  0.00  
 321   23:00    0.0    44   93.4     4     42.4     5.2   1019.0  0.00  
 321   23:10    0.0    47   82.7     5     47.9     5.4   1019.0  0.00  
 321   23:20    0.0    46   78.0     4     46.7     5.0   1019.0  0.00  
 321   23:30    0.0    45   76.8     2     37.3     4.2   1019.0  0.00  
 321   23:40    0.0    43   83.0     3     19.4     4.2   1019.0  0.00  
 321   23:50    0.0    43   84.7     4     35.1     5.8   1018.6  0.00  
 322    0:00    0.0    43   82.5     5     60.6     6.1   1018.6  0.00  
 322    0:10    0.0    42   85.5     4     56.1     5.6   1018.6  0.00  
 322    0:20    0.0    42   84.2     3     58.2     4.2   1019.0  0.00  
 322    0:30    0.0    41   83.8     2     64.0     3.1   1019.0  0.00  
 322    0:40    0.0    42   85.6     2     42.1     2.9   1019.0  0.00  
 322    0:50    0.0    42   86.0     2     39.2     3.4   1019.0  0.00  
 322    1:00    0.0    42   87.6     1     44.0     1.8   1019.0  0.00  
 322    1:10    0.0    42   88.0     2     65.2     3.7   1019.0  0.00  
 322    1:20    0.0    40   88.6     4     80.4     4.7   1019.0  0.00  
 322    1:30    0.0    40   90.8     4     79.7     5.0   1019.0  0.00  
 322    1:40    0.0    40   90.3     4     67.1     4.5   1019.0  0.00  
 322    1:50    0.0    40   89.8     3     66.0     3.9   1019.0  0.00  
 322    2:00    0.0    39   90.7     3     69.3     3.9   1019.0  0.00  
 322    2:10    0.0    39   91.3     4     61.8     4.9   1019.0  0.00  
 322    2:20    0.0    40   90.2     4     57.8     4.8   1019.0  0.00  
 322    2:30    0.0    39   89.0     4     71.1     5.0   1019.0  0.00  
 322    2:40    0.0    39   89.0     5     75.9     7.1   1019.0  0.00  
 322    2:50    0.0    40   86.8     6     74.9     6.9   1019.0  0.00  
 322    3:00    0.0    40   85.0     6     77.8     6.7   1018.6  0.00  
 322    3:10    0.0    41   83.2     6     79.2     6.5   1018.6  0.00  
 322    3:20    0.0    40   83.7     4     71.8     6.1   1018.6  0.00  
 322    3:30    0.0    42   80.8     5     82.7     5.6   1018.6  0.00  
 322    3:40    0.0    41   79.5     4     86.0     6.0   1018.6  0.00  
 322    3:50    0.0    43   75.6     6     75.7     7.0   1018.6  0.00  
 322    4:00    0.0    45   68.6     6     76.4     7.7   1018.6  0.00  
 322    4:10    0.0    45   67.4     7     77.3     7.9   1018.6  0.00  
 322    4:20    0.0    44   69.2     6     74.5     7.5   1018.6  0.00  
 322    4:30    0.0    42   73.3     5     84.8     7.1   1018.6  0.00  
 322    4:40    0.0    40   76.9     4     78.1     5.5   1018.6  0.00  
 322    4:50    0.0    42   78.4     6     83.9     7.3   1018.6  0.00  
 322    5:00    0.0    43   74.3     6     83.2     7.1   1018.6  0.00  
 322    5:10    0.0    41   74.8     5     82.8     6.8   1018.6  0.00  
 322    5:20    0.0    39   80.4     6     83.6     8.4   1018.6  0.00  
 322    5:30    0.0    44   71.4     5     68.3     8.0   1018.6  0.00  
 322    5:40    0.0    41   74.8     4     60.4     5.2   1019.0  0.00  
 322    5:50    0.0    40   81.6     6     70.6     7.2   1019.0  0.00  
 322    6:00    0.0    43   73.8     6     83.9     7.2   1019.0  0.00  
 322    6:10    0.0    44   71.4     6     88.0     7.2   1019.0  0.00  
 322    6:20    0.0    44   69.7     5     82.7     7.0   1019.0  0.00  
 322    6:30    0.0    44   69.9     4     84.1     6.4   1019.0  0.00  
 322    6:40    0.0    45   67.4     6     78.2     8.2   1019.3  0.00  
 322    6:50    1.0    44   67.0     5     78.4     7.3   1019.3  0.00  
 322    7:00    5.0    40   74.6     4     82.7     6.0   1019.6  0.00  
 322    7:10   10.0    39   78.7     4     98.1     5.3   1019.6  0.00  
 322    7:20   29.0    39   81.0     4     89.4     5.2   1019.6  0.00  
 322    7:30   50.0    40   80.5     4     90.7     6.1   1019.6  0.00  
 322    7:40   78.0    44   70.8     5     91.8     6.7   1020.0  0.00  
 322    7:50  108.0    46   66.8     4     95.6     5.6   1020.0  0.00  
 322    8:00  134.0    46   68.6     5     85.5     6.0   1020.0  0.00  
 322    8:10  158.0    47   66.8     4     73.5     5.5   1020.0  0.00  
 322    8:20  181.0    48   68.4     4     82.8     4.8   1020.0  0.00  
 322    8:30  206.0    50   64.5     4     89.0     5.7   1020.0  0.00  
 322    8:40  230.0    51   61.1     4     83.9     6.1   1020.0  0.00  
 322    8:50  255.0    52   58.7     4     99.7     5.7   1020.0  0.00  
 322    9:00  278.0    53   58.6     3    107.5     5.1   1020.0  0.00  
 322    9:10  301.0    54   54.8     4     79.3     8.0   1020.0  0.00  
 322    9:20  323.0    55   49.8     6     51.6     9.4   1020.0  0.00  
 322    9:30  344.0    55   49.3     6     54.5     9.0   1020.0  0.00  
 322    9:40  364.0    55   47.8     5     58.8     9.1   1020.0  0.00  
 322    9:50  383.0    56   44.8     5     57.8     8.0   1020.0  0.00  
 322   10:00  401.0    57   44.4     4     63.1     8.4   1020.0  0.00  
 322   10:10  419.0    57   43.3     6     53.9    10.4   1020.0  0.00  
 322   10:20  434.0    57   43.8     7     51.5    12.1   1020.0  0.00  
 322   10:30  430.0    58   44.1     6     51.8     9.4   1020.0  0.00  
 322   10:40  462.0    58   41.5     6     48.1    10.6   1020.0  0.00  
 322   10:50  481.0    59   39.0     6     53.0     8.8   1020.0  0.00  
 322   11:00  504.0    60   38.6     6     43.0     9.2   1019.6  0.00  
 322   11:10  499.0    60   37.7     6     33.4     8.4   1019.6  0.00  
 322   11:20  505.0    60   38.3     6     33.4     8.6   1019.6  0.00  
 322   11:30  490.0    60   35.3     5     16.3     9.6   1019.6  0.00  
 322   11:40  514.0    60   35.9     5    355.7     8.7   1019.6  0.00  
 322   11:50  514.0    60   33.9     6    338.6     8.2   1019.3  0.00  
 322   12:00  505.0    61   35.7     4    350.5     7.2   1019.3  0.00  
 322   12:10  502.0    61   34.2     8    301.9    11.2   1019.3  0.00  
 322   12:20  488.0    60   42.7     9    290.7    11.4   1019.3  0.00  
 322   12:30  501.0    59   38.8     9    298.1    10.6   1019.0  0.00  
 322   12:40  508.0    59   43.9     9    302.5    11.3   1019.0  0.00  
 322   12:50  502.0    59   40.2     9    305.5    11.7   1018.6  0.00  
 322   13:00  448.0    59   38.3     9    316.6    11.4   1018.6  0.00  
 322   13:10  430.0    59   39.3    10    319.4    12.7   1018.6  0.00  
 322   13:20  456.0    59   42.8    10    320.1    12.6   1018.3  0.00  
 322   13:30  387.0    58   46.8    11    311.9    12.9   1018.3  0.00  
 322   13:40  481.0    58   55.4    12    308.6    14.1   1018.3  0.00  
 322   13:50  457.0    58   54.0    11    313.5    14.4   1018.3  0.00  
 322   14:00  402.0    58   53.4    11    317.9    13.2   1018.3  0.00  
 322   14:10  386.0    58   46.6    10    328.3    12.1   1018.3  0.00  
 322   14:20  343.0    58   45.4    10    326.9    13.4   1018.0  0.00  
 322   14:30  370.0    58   45.9    10    330.6    12.2   1018.0  0.00  
 322   14:40  288.0    58   50.0    10    326.4    12.8   1018.0  0.00  
 322   14:50  327.0    57   56.9    10    316.9    12.8   1018.0  0.00  
 322   15:00  294.0    57   60.5    10    313.2    12.7   1017.6  0.00  
 322   15:10  242.0    56   64.0     9    319.6    12.2   1017.6  0.00  
 322   15:20  210.0    56   66.7     8    312.1    10.5   1017.6  0.00  
 322   15:30  226.0    56   69.3     9    317.5    10.4   1017.6  0.00  
 322   15:40  212.0    56   70.8     8    311.8    10.4   1017.6  0.00  
 322   15:50  149.0    56   72.4     8    310.9    10.4   1017.6  0.00  
 322   16:00   84.0    55   74.8     7    314.2     8.9   1017.6  0.00  
 322   16:10   48.0    54   76.9     5    321.9     7.3   1017.3  0.00  
 322   16:20   38.0    53   78.9     4    329.1     5.2   1017.3  0.00  

Return to Pt. Reyes graphs page.


Western Regional Climate Center,wrcc@dri.edu